Egmondgracht — PDWG — position and weather

sailwx.info

Track history (hours):
 
Tides and Currents Weather Stations Pressure Air Temp Water Temp Dewpoint Dewpoint Depression Visibility Wind Speed Wind Dir Waves Ship Positions

Egmondgracht

Last reported at 2017-Aug-18 11:52 UTC. Time now 2017-Aug-18 12:51 UTC.
Position N 42°43' E 031°30'.

Length 136 m; beam 19 m; draft 9 m.

Type: Cargo ship. MMSI: 245716000.

Date/timePositionNaut miles runAvg speedWind from/ knotsBaromVisibWave heightAir tempDewpointWater temp
2017-Aug-18 11:52N 42°43' E 031°30'511.7
2017-Aug-18 11:27N 42°42' E 031°24'511.8
2017-Aug-18 10:59N 42°42' E 031°16'2011.7
2017-Aug-18 09:15N 42°39' E 030°49'311.8
2017-Aug-18 08:59N 42°39' E 030°45'611.9
2017-Aug-18 08:31N 42°39' E 030°37'612.0
2017-Aug-18 08:00N 42°38' E 030°29'711.9
2017-Aug-18 07:27N 42°38' E 030°20'911.7
2017-Aug-18 06:40N 42°37' E 030°08'311.5
2017-Aug-18 06:26N 42°36' E 030°04'511.4
2017-Aug-18 06:00N 42°36' E 029°57'1011.3
2017-Aug-18 05:07N 42°35' E 029°44'211.2
2017-Aug-18 04:59N 42°34' E 029°42'511.3
2017-Aug-18 04:30N 42°34' E 029°34'611.4
2017-Aug-18 04:01N 42°33' E 029°27'611.3
2017-Aug-18 03:30N 42°33' E 029°19'1211.2
2017-Aug-18 02:23N 42°31' E 029°02'511.2
2017-Aug-18 01:54N 42°31' E 028°55'411.4
2017-Aug-18 01:30N 42°31' E 028°49'  
2017-Aug-14 13:03N 43°32' E 034°45'113.2
2017-Aug-14 13:00N 43°33' E 034°46'7111.3
2017-Aug-14 06:43N 43°48' E 036°22'512.1
2017-Aug-14 06:18N 43°48' E 036°28'412.6
2017-Aug-14 06:00N 43°49' E 036°33'612.7
2017-Aug-14 05:30N 43°50' E 036°42'811.3
2017-Aug-14 04:48N 43°56' E 036°50'412.3
2017-Aug-14 04:28N 43°55' E 036°56'510.3
2017-Aug-14 04:00N 43°53' E 037°02'1 0.1
2017-Aug-13 19:15N 43°54' E 037°03'0 0.1
2017-Aug-13 19:00N 43°54' E 037°03'1 0.0
2017-Aug-12 20:41N 43°54' E 037°04'0 0.0
2017-Aug-12 20:23N 43°54' E 037°04'0 0.1
2017-Aug-12 19:59N 43°54' E 037°04'  
2017-Aug-09 15:13N 43°57' E 037°08'0 0.1
2017-Aug-09 13:43N 43°57' E 037°09'1 0.1
2017-Aug-08 16:18N 43°58' E 037°10'0 0.1
2017-Aug-08 16:00N 43°58' E 037°10'0 0.1
2017-Aug-08 15:30N 43°58' E 037°10'0 0.1
2017-Aug-08 14:39N 43°58' E 037°10'  
Track history (hours):
 
Tides and Currents Weather Stations Pressure Air Temp Water Temp Dewpoint Dewpoint Depression Visibility Wind Speed Wind Dir Waves Ship Positions

Egmondgracht

Last reported at 2017-Aug-18 11:52 UTC. Time now 2017-Aug-18 12:51 UTC.
Position N 42°43' E 031°30'.

Length 136 m; beam 19 m; draft 9 m.

Type: Cargo ship. MMSI: 245716000.

Date/timePositionNaut miles runAvg speedWind from/ knotsBaromVisibWave heightAir tempDewpointWater temp
2017-Aug-18 11:52N 42°43' E 031°30'511.7
2017-Aug-18 11:27N 42°42' E 031°24'511.8
2017-Aug-18 10:59N 42°42' E 031°16'2011.7
2017-Aug-18 09:15N 42°39' E 030°49'311.8
2017-Aug-18 08:59N 42°39' E 030°45'611.9
2017-Aug-18 08:31N 42°39' E 030°37'612.0
2017-Aug-18 08:00N 42°38' E 030°29'711.9
2017-Aug-18 07:27N 42°38' E 030°20'911.7
2017-Aug-18 06:40N 42°37' E 030°08'311.5
2017-Aug-18 06:26N 42°36' E 030°04'511.4
2017-Aug-18 06:00N 42°36' E 029°57'1011.3
2017-Aug-18 05:07N 42°35' E 029°44'211.2
2017-Aug-18 04:59N 42°34' E 029°42'511.3
2017-Aug-18 04:30N 42°34' E 029°34'611.4
2017-Aug-18 04:01N 42°33' E 029°27'611.3
2017-Aug-18 03:30N 42°33' E 029°19'1211.2
2017-Aug-18 02:23N 42°31' E 029°02'511.2
2017-Aug-18 01:54N 42°31' E 028°55'411.4
2017-Aug-18 01:30N 42°31' E 028°49'  
2017-Aug-14 13:03N 43°32' E 034°45'113.2
2017-Aug-14 13:00N 43°33' E 034°46'7111.3
2017-Aug-14 06:43N 43°48' E 036°22'512.1
2017-Aug-14 06:18N 43°48' E 036°28'412.6
2017-Aug-14 06:00N 43°49' E 036°33'612.7
2017-Aug-14 05:30N 43°50' E 036°42'811.3
2017-Aug-14 04:48N 43°56' E 036°50'412.3
2017-Aug-14 04:28N 43°55' E 036°56'510.3
2017-Aug-14 04:00N 43°53' E 037°02'1 0.1
2017-Aug-13 19:15N 43°54' E 037°03'0 0.1
2017-Aug-13 19:00N 43°54' E 037°03'1 0.0
2017-Aug-12 20:41N 43°54' E 037°04'0 0.0
2017-Aug-12 20:23N 43°54' E 037°04'0 0.1
2017-Aug-12 19:59N 43°54' E 037°04'  
2017-Aug-09 15:13N 43°57' E 037°08'0 0.1
2017-Aug-09 13:43N 43°57' E 037°09'1 0.1
2017-Aug-08 16:18N 43°58' E 037°10'0 0.1
2017-Aug-08 16:00N 43°58' E 037°10'0 0.1
2017-Aug-08 15:30N 43°58' E 037°10'0 0.1
2017-Aug-08 14:39N 43°58' E 037°10'  

Dump ship's entire track history